Time;durP1;ratioP1;P1;durP2;ratioP2;P2;SDS_P1;SDS_P2;PMS_P1;PMS_P2;Temp;Humidity;BMP_temperature;BMP_pressure;BME280_temperature;BME280_humidity;BME280_pressure;Samples;Min_cycle;Max_cycle;Signal;HPM_P1;HPM_P2
2023/06/06 00:00:30;;;;;;;9.93;8.90;;;14.00;99.90;;;;;;5095550;28;20361;-83
2023/06/06 00:02:56;;;;;;;11.55;8.13;;;14.20;99.90;;;;;;5095557;28;20127;-83
2023/06/06 00:05:25;;;;;;;11.20;7.68;;;14.00;99.90;;;;;;5095047;28;20059;-84
2023/06/06 00:07:52;;;;;;;8.27;7.18;;;13.90;99.90;;;;;;5095631;28;20036;-84
2023/06/06 00:10:18;;;;;;;11.10;6.97;;;14.20;99.90;;;;;;5094982;28;20059;-83
2023/06/06 00:12:46;;;;;;;9.45;7.75;;;13.60;99.90;;;;;;5095550;28;20028;-84
2023/06/06 00:15:13;;;;;;;12.80;7.82;;;13.90;99.90;;;;;;5095413;28;20054;-83
2023/06/06 00:17:40;;;;;;;8.85;6.57;;;13.80;99.90;;;;;;5094496;28;20024;-84
2023/06/06 00:20:07;;;;;;;9.48;7.45;;;14.20;99.90;;;;;;5095253;28;20459;-83
2023/06/06 00:22:32;;;;;;;8.00;7.20;;;13.70;99.90;;;;;;5095401;28;20024;-84
2023/06/06 00:24:58;;;;;;;7.57;6.93;;;13.70;99.90;;;;;;5094392;28;20114;-83
2023/06/06 00:27:23;;;;;;;9.05;7.50;;;13.70;99.90;;;;;;5095014;28;20024;-84
2023/06/06 00:29:49;;;;;;;12.98;7.30;;;13.60;99.90;;;;;;5095003;28;20032;-84
2023/06/06 00:32:15;;;;;;;11.23;8.00;;;13.60;99.90;;;;;;5094117;28;20027;-84
2023/06/06 00:34:40;;;;;;;8.60;7.00;;;13.70;99.90;;;;;;5095262;28;20028;-84
2023/06/06 00:37:06;;;;;;;9.63;7.47;;;13.60;99.90;;;;;;5097845;28;20103;-83
2023/06/06 00:39:31;;;;;;;9.45;8.02;;;13.60;99.90;;;;;;5095084;28;20055;-84
2023/06/06 00:41:57;;;;;;;8.15;7.35;;;12.60;99.90;;;;;;5095180;28;20464;-84
2023/06/06 00:44:23;;;;;;;8.38;7.20;;;13.50;99.90;;;;;;5094796;28;20020;-84
2023/06/06 00:46:49;;;;;;;9.75;7.68;;;13.40;99.90;;;;;;5093818;28;20031;-84
2023/06/06 00:49:17;;;;;;;12.80;7.88;;;13.60;99.90;;;;;;5094848;28;20115;-84
2023/06/06 00:51:43;;;;;;;12.50;8.05;;;13.50;99.90;;;;;;5094811;28;20026;-84
2023/06/06 00:54:14;;;;;;;15.25;8.45;;;12.50;99.90;;;;;;5093959;28;20051;-84
2023/06/06 00:56:43;;;;;;;12.50;8.43;;;13.40;99.90;;;;;;5094624;28;20052;-83
2023/06/06 00:59:10;;;;;;;14.15;8.52;;;12.80;99.90;;;;;;5094563;28;20028;-83
2023/06/06 01:01:38;;;;;;;11.27;8.77;;;13.30;99.90;;;;;;5094020;28;20119;-84
2023/06/06 01:04:10;;;;;;;12.25;7.80;;;13.30;99.90;;;;;;5094590;28;20028;-84
2023/06/06 01:06:37;;;;;;;12.90;8.77;;;13.30;99.90;;;;;;5093799;28;20032;-84
2023/06/06 01:09:04;;;;;;;10.73;8.40;;;13.40;99.90;;;;;;5094319;28;20538;-84
2023/06/06 01:11:51;;;;;;;14.50;8.82;;;13.40;99.90;;;;;;5094169;28;20031;-84
2023/06/06 01:14:26;;;;;;;10.50;8.57;;;13.40;99.90;;;;;;5093720;28;20031;-84
2023/06/06 01:16:57;;;;;;;11.55;8.25;;;13.50;99.90;;;;;;5094481;28;20059;-83
2023/06/06 01:19:29;;;;;;;10.32;7.90;;;13.40;99.90;;;;;;5094285;28;20028;-83
2023/06/06 01:21:56;;;;;;;11.48;9.07;;;13.20;99.90;;;;;;5093326;28;20027;-84
2023/06/06 01:24:22;;;;;;;11.50;8.25;;;13.20;99.90;;;;;;5093962;28;20499;-84
2023/06/06 01:26:47;;;;;;;10.43;8.40;;;13.20;99.90;;;;;;5093969;28;20460;-84
2023/06/06 01:29:13;;;;;;;13.30;8.10;;;13.60;99.90;;;;;;5092826;28;20088;-84
2023/06/06 01:32:02;;;;;;;16.98;8.20;;;13.10;99.90;;;;;;5093470;28;20107;-84
2023/06/06 01:34:33;;;;;;;9.25;7.68;;;13.10;99.90;;;;;;5093866;28;20020;-84
2023/06/06 01:37:21;;;;;;;11.80;8.05;;;13.50;99.90;;;;;;5093224;28;20020;-84
2023/06/06 01:39:50;;;;;;;9.57;7.65;;;13.10;99.90;;;;;;5093973;28;20028;-84
2023/06/06 01:42:16;;;;;;;10.73;7.70;;;13.10;99.90;;;;;;5093012;28;20076;-84
2023/06/06 01:44:43;;;;;;;8.93;7.35;;;13.10;99.90;;;;;;5093735;28;20028;-84
2023/06/06 01:47:10;;;;;;;13.15;7.85;;;13.00;99.90;;;;;;5093514;28;20076;-84
2023/06/06 01:49:36;;;;;;;10.50;7.45;;;14.30;99.90;;;;;;5093026;28;20161;-84
2023/06/06 01:52:02;;;;;;;9.73;8.18;;;12.60;99.90;;;;;;5093690;28;20020;-84
2023/06/06 01:54:28;;;;;;;11.18;8.80;;;13.00;99.90;;;;;;5093004;28;20040;-84
2023/06/06 01:56:54;;;;;;;9.35;7.10;;;13.00;99.90;;;;;;5092779;28;20030;-84
2023/06/06 01:59:20;;;;;;;11.93;7.55;;;12.70;99.90;;;;;;5094970;28;20028;-84
2023/06/06 02:01:46;;;;;;;8.27;7.57;;;13.00;99.90;;;;;;5095300;28;20039;-83
2023/06/06 02:04:11;;;;;;;12.55;8.75;;;12.90;99.90;;;;;;5092410;28;20024;-84
2023/06/06 02:06:38;;;;;;;10.48;7.88;;;13.90;99.90;;;;;;5075178;28;20434;-83
2023/06/06 02:09:03;;;;;;;9.52;7.78;;;12.90;99.90;;;;;;5093282;28;20039;-84
2023/06/06 02:11:29;;;;;;;11.52;7.43;;;12.90;99.90;;;;;;5092675;28;20028;-84
2023/06/06 02:13:57;;;;;;;9.93;7.40;;;12.90;99.90;;;;;;5093056;28;20028;-83
2023/06/06 02:16:23;;;;;;;14.05;7.18;;;12.90;99.90;;;;;;5093152;28;20035;-83
2023/06/06 02:18:49;;;;;;;9.13;7.15;;;11.80;99.90;;;;;;5092501;28;20483;-83
2023/06/06 02:21:15;;;;;;;13.48;7.75;;;12.80;99.90;;;;;;5092305;28;20032;-84
2023/06/06 02:23:40;;;;;;;13.52;7.85;;;12.80;99.90;;;;;;5092836;28;20027;-84
2023/06/06 02:26:06;;;;;;;10.43;7.15;;;12.80;99.90;;;;;;5092654;28;20050;-83
2023/06/06 02:28:33;;;;;;;12.88;8.23;;;12.70;99.90;;;;;;5092826;28;20137;-84
2023/06/06 02:30:58;;;;;;;7.97;7.18;;;12.70;99.90;;;;;;5092183;28;20032;-84
2023/06/06 02:33:24;;;;;;;11.70;7.45;;;12.80;99.90;;;;;;5093120;28;20020;-84
2023/06/06 02:35:50;;;;;;;15.13;7.07;;;12.70;99.90;;;;;;5092997;28;20031;-84
2023/06/06 02:38:15;;;;;;;9.80;6.95;;;12.60;99.90;;;;;;5092589;28;20115;-84
2023/06/06 02:40:41;;;;;;;14.10;7.55;;;12.70;99.90;;;;;;5092833;28;20022;-84
2023/06/06 02:43:07;;;;;;;13.65;7.60;;;12.70;99.90;;;;;;5092952;28;20028;-84
2023/06/06 02:45:32;;;;;;;9.50;7.32;;;12.80;99.90;;;;;;5095539;28;20027;-84
2023/06/06 02:47:58;;;;;;;9.38;7.18;;;12.70;99.90;;;;;;5097130;28;20464;-83
2023/06/06 02:50:24;;;;;;;12.10;7.35;;;12.80;99.90;;;;;;5097009;28;20522;-84
2023/06/06 02:52:51;;;;;;;10.07;7.55;;;13.20;99.90;;;;;;5096337;28;20131;-84
2023/06/06 02:55:16;;;;;;;10.02;7.03;;;12.80;99.90;;;;;;5096803;28;20075;-83
2023/06/06 02:57:42;;;;;;;11.15;6.72;;;12.50;99.90;;;;;;5096636;28;20445;-84
2023/06/06 03:00:08;;;;;;;11.82;7.13;;;12.80;99.90;;;;;;5096000;28;20399;-83
2023/06/06 03:02:35;;;;;;;9.15;6.95;;;12.80;99.90;;;;;;5097115;28;20020;-83
2023/06/06 03:05:02;;;;;;;9.48;6.95;;;12.70;99.90;;;;;;5096712;28;20086;-84
2023/06/06 03:07:28;;;;;;;10.65;6.57;;;12.70;99.90;;;;;;5096039;28;20484;-84
2023/06/06 03:09:54;;;;;;;10.27;6.53;;;12.70;99.90;;;;;;5096683;28;20028;-84
2023/06/06 03:12:19;;;;;;;10.93;7.25;;;12.70;99.90;;;;;;5096670;28;20078;-84
2023/06/06 03:14:45;;;;;;;9.88;7.38;;;12.80;99.90;;;;;;5095757;28;20024;-84
2023/06/06 03:17:11;;;;;;;8.50;5.95;;;13.60;99.90;;;;;;5096667;28;20028;-84
2023/06/06 03:19:37;;;;;;;13.35;7.65;;;12.70;99.90;;;;;;5096354;28;20534;-84
2023/06/06 03:22:02;;;;;;;13.57;7.25;;;12.70;99.90;;;;;;5096118;28;20017;-84
2023/06/06 03:24:33;;;;;;;7.60;6.82;;;12.60;99.90;;;;;;5098503;28;20024;-84
2023/06/06 03:27:02;;;;;;;;;;;12.60;99.90;;;;;;5096593;28;20052;-84
2023/06/06 03:29:28;;;;;;;8.75;6.68;;;12.80;99.90;;;;;;5095509;28;20002;-84
2023/06/06 03:31:53;;;;;;;12.73;6.97;;;12.70;99.90;;;;;;5096378;28;20063;-84
2023/06/06 03:34:20;;;;;;;9.65;7.15;;;12.70;99.90;;;;;;5095282;28;20062;-84
2023/06/06 03:36:46;;;;;;;10.90;7.18;;;12.70;99.90;;;;;;5096287;28;20032;-84
2023/06/06 03:39:11;;;;;;;10.05;7.18;;;12.70;99.90;;;;;;5096187;28;20016;-83
2023/06/06 03:41:37;;;;;;;9.07;6.75;;;12.70;99.90;;;;;;5095005;28;20020;-84
2023/06/06 03:44:03;;;;;;;10.85;6.65;;;12.70;99.90;;;;;;5077822;28;20024;-83
2023/06/06 03:46:28;;;;;;;11.32;6.53;;;13.60;99.90;;;;;;5096162;28;20099;-84
2023/06/06 03:48:54;;;;;;;11.52;6.82;;;12.70;99.90;;;;;;5095196;28;20032;-84
2023/06/06 03:51:20;;;;;;;12.43;7.28;;;12.00;99.90;;;;;;5095936;28;20479;-84
2023/06/06 03:53:45;;;;;;;8.68;6.50;;;12.70;99.90;;;;;;5095725;28;20054;-84
2023/06/06 03:56:12;;;;;;;9.50;6.57;;;12.80;99.90;;;;;;5094538;28;20081;-84
2023/06/06 03:58:37;;;;;;;10.15;6.80;;;12.90;99.90;;;;;;5095589;28;20081;-83
2023/06/06 04:01:03;;;;;;;7.68;6.55;;;14.40;99.90;;;;;;5095854;28;20024;-85
2023/06/06 04:03:36;;;;;;;15.82;6.55;;;13.00;99.90;;;;;;5095100;28;20020;-84
2023/06/06 04:06:05;;;;;;;10.38;6.38;;;12.90;99.90;;;;;;5095741;28;20012;-84
2023/06/06 04:08:32;;;;;;;12.27;7.75;;;12.90;99.90;;;;;;5095205;28;20040;-85
2023/06/06 04:10:58;;;;;;;11.02;7.15;;;12.90;99.90;;;;;;5094729;28;20051;-85
2023/06/06 04:13:23;;;;;;;7.50;6.35;;;12.80;99.90;;;;;;5095658;28;20024;-85
2023/06/06 04:15:49;;;;;;;12.45;7.03;;;12.80;99.90;;;;;;5095575;28;20481;-85
2023/06/06 04:18:15;;;;;;;11.80;6.80;;;12.70;99.90;;;;;;5094828;28;20364;-84
2023/06/06 04:20:43;;;;;;;9.23;6.80;;;12.80;99.90;;;;;;5095409;28;20048;-84
2023/06/06 04:23:09;;;;;;;12.18;6.90;;;12.70;99.90;;;;;;5095298;28;20024;-84
2023/06/06 04:25:34;;;;;;;10.52;6.78;;;12.60;99.90;;;;;;5094369;28;20035;-85
2023/06/06 04:28:00;;;;;;;15.13;7.25;;;12.60;99.90;;;;;;5095094;28;20036;-84
2023/06/06 04:30:29;;;;;;;8.95;7.53;;;12.60;99.90;;;;;;5094980;28;20028;-84
2023/06/06 04:32:55;;;;;;;8.50;6.72;;;12.60;99.90;;;;;;5095296;28;20047;-84
2023/06/06 04:35:20;;;;;;;11.95;7.20;;;12.70;99.90;;;;;;5095173;28;20020;-84
2023/06/06 04:37:53;;;;;;;7.60;6.32;;;12.70;99.90;;;;;;5094384;28;20020;-84
2023/06/06 04:40:22;;;;;;;11.77;7.47;;;12.70;99.90;;;;;;5094814;28;20052;-84
2023/06/06 04:42:49;;;;;;;14.97;7.13;;;12.80;99.90;;;;;;5095322;28;20133;-84
2023/06/06 04:45:15;;;;;;;10.70;7.30;;;12.80;99.90;;;;;;5095794;28;20262;-84
2023/06/06 04:47:43;;;;;;;12.32;6.35;;;12.80;99.90;;;;;;5097512;28;20526;-84
2023/06/06 04:50:09;;;;;;;10.77;7.53;;;12.80;99.90;;;;;;5094897;28;20056;-84
2023/06/06 04:52:35;;;;;;;9.85;7.00;;;12.90;99.90;;;;;;5093831;28;20023;-84
2023/06/06 04:55:03;;;;;;;9.52;7.38;;;12.80;99.90;;;;;;5094534;28;20078;-84
2023/06/06 04:57:29;;;;;;;16.13;7.28;;;12.80;99.90;;;;;;5094764;28;20450;-84
2023/06/06 04:59:56;;;;;;;10.35;6.30;;;12.90;99.90;;;;;;5093971;28;20407;-85
2023/06/06 05:02:28;;;;;;;7.43;6.57;;;12.90;99.90;;;;;;5094638;28;20182;-84
2023/06/06 05:04:55;;;;;;;10.20;5.95;;;13.00;99.90;;;;;;5094680;28;20031;-84
2023/06/06 05:07:23;;;;;;;14.98;7.25;;;13.10;99.90;;;;;;5092679;28;20085;-84
2023/06/06 05:09:53;;;;;;;12.30;6.97;;;13.90;99.90;;;;;;5094585;28;20361;-85
2023/06/06 05:12:19;;;;;;;13.10;7.13;;;13.20;99.90;;;;;;5094547;28;20028;-84
2023/06/06 05:14:44;;;;;;;17.48;7.60;;;13.20;99.90;;;;;;5093578;28;20048;-85
2023/06/06 05:17:15;;;;;;;10.38;7.28;;;13.20;99.90;;;;;;5094324;28;20024;-85
2023/06/06 05:19:41;;;;;;;16.60;7.18;;;13.20;99.90;;;;;;5093314;28;20539;-85
2023/06/06 05:22:07;;;;;;;10.18;6.43;;;13.20;99.90;;;;;;5094426;28;20158;-84
2023/06/06 05:24:32;;;;;;;10.10;6.80;;;13.20;99.90;;;;;;5094621;28;20103;-85
2023/06/06 05:26:58;;;;;;;10.63;6.70;;;13.30;99.90;;;;;;5093309;28;20020;-85
2023/06/06 05:29:26;;;;;;;16.40;6.85;;;13.30;99.90;;;;;;5093953;28;20063;-84
2023/06/06 05:31:52;;;;;;;11.77;6.93;;;13.40;99.90;;;;;;5093790;28;20131;-85
2023/06/06 05:34:18;;;;;;;11.45;6.35;;;13.30;99.90;;;;;;5093147;28;20111;-85
2023/06/06 05:36:44;;;;;;;10.75;6.30;;;13.30;99.90;;;;;;5093517;28;20046;-85
2023/06/06 05:39:10;;;;;;;9.55;6.40;;;12.50;99.90;;;;;;5093727;28;20028;-85
2023/06/06 05:41:36;;;;;;;14.40;6.43;;;13.40;99.90;;;;;;5093234;28;20103;-85
2023/06/06 05:44:02;;;;;;;9.88;6.50;;;13.50;99.90;;;;;;5093847;28;20436;-85
2023/06/06 05:46:27;;;;;;;14.00;6.63;;;13.50;99.90;;;;;;5093447;28;20118;-85
2023/06/06 05:48:53;;;;;;;15.05;6.60;;;13.70;99.90;;;;;;5092210;28;20051;-85
2023/06/06 05:51:18;;;;;;;11.10;6.40;;;13.60;99.90;;;;;;5093939;28;20024;-85
2023/06/06 05:53:44;;;;;;;11.43;6.00;;;13.60;99.90;;;;;;5092860;28;20487;-85
2023/06/06 05:56:10;;;;;;;12.23;6.40;;;13.20;99.90;;;;;;5092922;28;20480;-85
2023/06/06 05:58:36;;;;;;;11.52;6.05;;;12.60;99.90;;;;;;5093739;28;20035;-85
2023/06/06 06:01:02;;;;;;;14.27;6.35;;;13.60;99.90;;;;;;5093521;28;20020;-86
2023/06/06 06:03:28;;;;;;;9.48;6.57;;;13.70;99.90;;;;;;5092806;28;20036;-84
2023/06/06 06:06:02;;;;;;;12.40;6.32;;;13.70;99.90;;;;;;5093530;28;20024;-85
2023/06/06 06:08:28;;;;;;;12.40;7.45;;;13.70;99.90;;;;;;5098364;28;20040;-85
2023/06/06 06:10:53;;;;;;;10.25;6.70;;;13.70;99.90;;;;;;5100356;28;20115;-85
2023/06/06 06:13:19;;;;;;;11.18;6.15;;;14.10;99.90;;;;;;5093399;28;20032;-86
2023/06/06 06:15:44;;;;;;;14.15;6.88;;;13.90;99.90;;;;;;5093160;28;20043;-86
2023/06/06 06:18:10;;;;;;;11.27;6.35;;;13.90;99.90;;;;;;5092467;28;20059;-86
2023/06/06 06:20:35;;;;;;;12.13;6.50;;;14.00;99.90;;;;;;5093296;28;20031;-86
2023/06/06 06:23:01;;;;;;;10.95;7.18;;;14.90;99.90;;;;;;5092466;28;20024;-85
2023/06/06 06:25:27;;;;;;;9.80;6.93;;;14.70;99.90;;;;;;5093452;28;20020;-85
2023/06/06 06:27:52;;;;;;;13.10;6.35;;;14.10;99.90;;;;;;5092991;28;20059;-85
2023/06/06 06:30:18;;;;;;;12.73;6.25;;;14.20;99.90;;;;;;5092131;28;20236;-86
2023/06/06 06:32:44;;;;;;;13.77;7.18;;;14.40;99.90;;;;;;5092906;28;20028;-86
2023/06/06 06:35:10;;;;;;;14.27;6.82;;;14.10;99.90;;;;;;5092870;28;20476;-85
2023/06/06 06:37:37;;;;;;;16.13;7.38;;;14.20;99.90;;;;;;5092129;28;20078;-86
2023/06/06 06:40:09;;;;;;;18.75;6.75;;;14.30;99.90;;;;;;5092973;28;20057;-86
2023/06/06 06:42:39;;;;;;;13.60;7.18;;;14.40;99.90;;;;;;5093207;28;20028;-85
2023/06/06 06:45:07;;;;;;;13.13;7.05;;;14.40;99.90;;;;;;5092220;28;20038;-86
2023/06/06 06:47:32;;;;;;;8.80;6.13;;;14.50;99.90;;;;;;5092616;28;20036;-86
2023/06/06 06:49:58;;;;;;;9.90;7.25;;;13.70;99.90;;;;;;5092799;28;20020;-85
2023/06/06 06:52:23;;;;;;;12.82;7.40;;;15.80;99.90;;;;;;5092348;28;20034;-87
2023/06/06 06:54:53;;;;;;;19.13;7.80;;;14.60;99.90;;;;;;5092629;28;20159;-86
2023/06/06 06:57:20;;;;;;;17.10;8.07;;;13.70;99.90;;;;;;5092738;28;20043;-85
2023/06/06 06:59:46;;;;;;;12.07;7.82;;;13.70;99.90;;;;;;5091962;28;20063;-85
2023/06/06 07:02:11;;;;;;;9.65;7.30;;;14.60;99.90;;;;;;5092526;28;20028;-85
2023/06/06 07:04:39;;;;;;;14.48;7.18;;;14.70;99.90;;;;;;5092910;28;20494;-85
2023/06/06 07:07:05;;;;;;;11.07;6.82;;;15.00;99.90;;;;;;5092056;28;20031;-85
2023/06/06 07:09:31;;;;;;;13.55;7.47;;;14.80;99.90;;;;;;5093364;28;20032;-85
2023/06/06 07:11:56;;;;;;;14.40;8.05;;;14.80;99.90;;;;;;5095596;28;20027;-85
2023/06/06 07:14:22;;;;;;;15.10;8.18;;;14.80;99.90;;;;;;5092042;28;20361;-85
2023/06/06 07:16:48;;;;;;;9.55;7.45;;;14.00;99.90;;;;;;5093135;28;20034;-86
2023/06/06 07:19:13;;;;;;;10.00;7.03;;;14.90;99.90;;;;;;5092007;28;20027;-85
2023/06/06 07:21:39;;;;;;;11.57;7.45;;;14.90;99.90;;;;;;5092547;28;20024;-85
2023/06/06 07:24:05;;;;;;;14.50;7.88;;;14.00;99.90;;;;;;5092643;28;20047;-85
2023/06/06 07:26:31;;;;;;;12.18;7.15;;;14.90;99.90;;;;;;5091773;28;20388;-86
2023/06/06 07:28:56;;;;;;;11.27;6.80;;;14.90;99.90;;;;;;5092823;28;20028;-86
2023/06/06 07:31:22;;;;;;;14.75;7.75;;;15.30;99.90;;;;;;5105811;28;20497;-85
2023/06/06 07:33:48;;;;;;;12.63;7.82;;;15.00;99.90;;;;;;5095760;28;20476;-85
2023/06/06 07:36:14;;;;;;;15.10;7.93;;;15.00;99.90;;;;;;5096307;28;20494;-85
2023/06/06 07:38:41;;;;;;;19.55;7.53;;;14.90;99.90;;;;;;5096230;28;20028;-86
2023/06/06 07:41:06;;;;;;;12.70;7.55;;;15.00;99.90;;;;;;5095150;28;20024;-86
2023/06/06 07:43:32;;;;;;;14.40;7.25;;;15.10;99.90;;;;;;5096171;28;20020;-86
2023/06/06 07:45:57;;;;;;;10.88;7.28;;;15.10;99.90;;;;;;5096338;28;20022;-86
2023/06/06 07:48:23;;;;;;;18.25;7.85;;;15.10;99.90;;;;;;5095391;28;20064;-85
2023/06/06 07:50:48;;;;;;;13.90;7.90;;;14.10;99.90;;;;;;5095877;28;20051;-85
2023/06/06 07:53:14;;;;;;;12.20;6.75;;;14.40;99.90;;;;;;5096085;28;20542;-85
2023/06/06 07:55:41;;;;;;;14.30;7.10;;;15.20;99.90;;;;;;5095091;28;20040;-85
2023/06/06 07:58:10;;;;;;;13.10;7.30;;;15.30;99.90;;;;;;5095618;28;20020;-85
2023/06/06 08:00:37;;;;;;;12.27;7.00;;;14.40;99.90;;;;;;5095632;28;20028;-85
2023/06/06 08:03:03;;;;;;;14.68;7.03;;;15.30;99.90;;;;;;5095319;28;20024;-84
2023/06/06 08:05:28;;;;;;;19.92;6.72;;;15.40;99.90;;;;;;5096235;28;20024;-85
2023/06/06 08:07:54;;;;;;;9.65;6.65;;;15.40;99.90;;;;;;5095593;28;20039;-85
2023/06/06 08:10:20;;;;;;;13.57;7.22;;;15.70;99.90;;;;;;5094816;28;20467;-85
2023/06/06 08:12:46;;;;;;;10.85;6.63;;;15.60;99.90;;;;;;5095610;28;20028;-85
2023/06/06 08:15:12;;;;;;;9.73;6.88;;;16.60;99.90;;;;;;5095251;28;20430;-85
2023/06/06 08:17:37;;;;;;;13.55;6.40;;;15.00;99.90;;;;;;5094640;28;20039;-85
2023/06/06 08:20:13;;;;;;;11.30;6.82;;;15.70;99.90;;;;;;5095535;28;20077;-85
2023/06/06 08:22:51;;;;;;;11.68;6.93;;;15.70;99.90;;;;;;5094750;28;20437;-85
2023/06/06 08:25:17;;;;;;;13.80;7.18;;;15.70;99.90;;;;;;5095181;28;20028;-85
2023/06/06 08:27:42;;;;;;;11.50;6.15;;;15.90;99.90;;;;;;5095455;28;20032;-85
2023/06/06 08:30:08;;;;;;;13.45;6.88;;;14.90;99.90;;;;;;5094558;28;20024;-85
2023/06/06 08:32:34;;;;;;;13.65;7.18;;;15.70;99.90;;;;;;5095028;28;20062;-85
2023/06/06 08:35:03;;;;;;;10.57;6.78;;;15.80;99.90;;;;;;5095284;28;20032;-85
2023/06/06 08:37:30;;;;;;;9.35;7.60;;;15.80;99.90;;;;;;5094271;28;20502;-85
2023/06/06 08:39:56;;;;;;;9.25;6.78;;;15.10;99.90;;;;;;5095199;28;20027;-85
2023/06/06 08:42:22;;;;;;;12.63;6.80;;;15.20;99.90;;;;;;5094745;28;20165;-85
2023/06/06 08:44:50;;;;;;;40.08;8.18;;;16.00;99.90;;;;;;5094305;28;20028;-85
2023/06/06 08:47:17;;;;;;;11.40;6.47;;;15.80;99.90;;;;;;5094573;28;20380;-85
2023/06/06 08:49:43;;;;;;;12.70;7.07;;;16.00;99.90;;;;;;5095055;28;20036;-85
2023/06/06 08:52:08;;;;;;;9.82;6.95;;;15.90;99.90;;;;;;5095391;28;20387;-85
2023/06/06 08:54:36;;;;;;;11.88;6.85;;;15.20;99.90;;;;;;5100717;28;20052;-85
2023/06/06 08:57:08;;;;;;;49.15;9.57;;;16.20;99.90;;;;;;5094883;28;20472;-85
2023/06/06 08:59:41;;;;;;;11.18;6.55;;;16.20;99.90;;;;;;5094105;28;20098;-85
2023/06/06 09:02:06;;;;;;;62.75;10.73;;;16.30;99.90;;;;;;5094365;28;20027;-85
2023/06/06 09:04:34;;;;;;;16.63;7.03;;;16.20;99.90;;;;;;5094470;28;20024;-85
2023/06/06 09:07:08;;;;;;;22.42;7.53;;;16.30;99.90;;;;;;5094031;28;20016;-85
2023/06/06 09:09:37;;;;;;;10.02;6.03;;;16.30;99.90;;;;;;5094414;28;20027;-85
2023/06/06 09:12:02;;;;;;;13.82;5.90;;;16.30;99.90;;;;;;5093843;28;20024;-85
2023/06/06 09:14:28;;;;;;;14.63;6.88;;;16.40;99.90;;;;;;5094453;28;20050;-85
2023/06/06 09:16:54;;;;;;;11.48;6.60;;;17.40;99.90;;;;;;5094055;28;20567;-85
2023/06/06 09:19:30;;;;;;;15.85;7.47;;;16.50;99.90;;;;;;5093450;28;20506;-85
2023/06/06 09:21:59;;;;;;;6.95;5.38;;;16.70;99.90;;;;;;5094013;28;20016;-85
2023/06/06 09:24:25;;;;;;;11.02;7.20;;;16.60;99.90;;;;;;5094048;28;20498;-85
2023/06/06 09:26:52;;;;;;;10.27;6.75;;;16.60;99.90;;;;;;5093154;28;20024;-85
2023/06/06 09:29:18;;;;;;;9.38;6.03;;;16.60;99.90;;;;;;5093952;28;20114;-85
2023/06/06 09:31:43;;;;;;;12.13;6.22;;;16.60;99.90;;;;;;5093958;28;20104;-85
2023/06/06 09:34:10;;;;;;;10.90;6.70;;;16.60;99.90;;;;;;5093489;28;20024;-85
2023/06/06 09:36:42;;;;;;;13.45;6.35;;;16.70;99.90;;;;;;5093908;28;20023;-85
2023/06/06 09:39:12;;;;;;;22.13;7.35;;;16.70;99.90;;;;;;5093745;28;20085;-85
2023/06/06 09:41:42;;;;;;;12.88;6.80;;;16.80;99.90;;;;;;5093181;28;20024;-85
2023/06/06 09:44:21;;;;;;;7.85;6.20;;;16.90;99.90;;;;;;5093623;28;20468;-85
2023/06/06 09:46:48;;;;;;;17.52;8.05;;;16.90;99.90;;;;;;5094014;28;20039;-85
2023/06/06 09:49:14;;;;;;;9.13;6.30;;;17.00;99.90;;;;;;5093031;28;20131;-85
2023/06/06 09:51:43;;;;;;;13.90;6.57;;;16.10;99.90;;;;;;5096581;28;20076;-84
2023/06/06 09:54:10;;;;;;;14.00;7.80;;;17.10;99.90;;;;;;5092427;28;20067;-85
2023/06/06 09:56:39;;;;;;;14.40;8.35;;;17.80;99.90;;;;;;5093732;28;20028;-85
2023/06/06 09:59:06;;;;;;;14.80;7.60;;;17.60;99.90;;;;;;5093761;28;20433;-85
2023/06/06 10:01:33;;;;;;;12.07;7.43;;;17.10;99.90;;;;;;5092511;28;20020;-84
2023/06/06 10:04:00;;;;;;;14.63;8.07;;;17.20;99.90;;;;;;5093374;28;20494;-85
2023/06/06 10:06:33;;;;;;;13.82;8.82;;;16.70;99.90;;;;;;5093076;28;20487;-85
2023/06/06 10:08:59;;;;;;;12.75;7.70;;;17.20;99.90;;;;;;5092602;28;20047;-85
2023/06/06 10:11:27;;;;;;;14.93;8.68;;;17.30;99.90;;;;;;5093708;28;20105;-85
2023/06/06 10:13:54;;;;;;;33.67;9.95;;;17.30;99.90;;;;;;5093581;28;20092;-85
2023/06/06 10:16:20;;;;;;;26.80;9.48;;;16.60;99.90;;;;;;5094989;28;20115;-84
2023/06/06 10:18:48;;;;;;;12.82;8.18;;;17.20;99.90;;;;;;5093830;28;20047;-85
2023/06/06 10:21:17;;;;;;;13.52;8.85;;;17.30;99.90;;;;;;5092963;28;20077;-85
2023/06/06 10:23:43;;;;;;;14.93;7.68;;;17.10;99.90;;;;;;5092571;28;20032;-85
2023/06/06 10:26:22;;;;;;;22.33;8.82;;;17.30;99.90;;;;;;5092857;28;20028;-84
2023/06/06 10:29:12;;;;;;;13.10;8.25;;;17.30;99.90;;;;;;5092917;28;20555;-85
2023/06/06 10:31:53;;;;;;;13.80;8.70;;;17.40;99.90;;;;;;5093024;28;20050;-84
2023/06/06 10:34:24;;;;;;;16.48;8.73;;;17.30;99.90;;;;;;5092985;28;20027;-85
2023/06/06 10:36:51;;;;;;;11.57;8.18;;;17.30;99.90;;;;;;5092659;28;20049;-85
2023/06/06 10:39:18;;;;;;;15.27;8.63;;;17.20;99.90;;;;;;5092588;28;20020;-84
2023/06/06 10:41:59;;;;;;;18.85;8.15;;;17.00;99.90;;;;;;5093296;28;20055;-84
2023/06/06 10:44:41;;;;;;;17.38;9.23;;;17.70;99.90;;;;;;5089426;28;20031;-84
2023/06/06 10:47:28;;;;;;;15.55;8.82;;;17.50;99.90;;;;;;5093609;28;20060;-85
2023/06/06 10:50:02;;;;;;;13.07;8.32;;;17.60;99.90;;;;;;5092641;28;20036;-85
2023/06/06 10:52:28;;;;;;;12.35;8.73;;;17.60;99.90;;;;;;5092140;28;20090;-84
2023/06/06 10:54:57;;;;;;;13.85;8.68;;;18.40;99.90;;;;;;5092724;28;20158;-85
2023/06/06 10:57:23;;;;;;;14.27;8.80;;;17.60;99.90;;;;;;5092136;28;20031;-85
2023/06/06 10:59:50;;;;;;;12.15;8.60;;;17.70;99.90;;;;;;5092820;28;20020;-85
2023/06/06 11:02:33;;;;;;;19.85;9.20;;;17.50;99.90;;;;;;5092651;28;20028;-85
2023/06/06 11:05:03;;;;;;;13.93;8.40;;;17.80;99.90;;;;;;5092990;28;20028;-85
2023/06/06 11:07:28;;;;;;;22.90;8.48;;;17.80;99.90;;;;;;5096617;28;20016;-85
2023/06/06 11:09:57;;;;;;;14.30;9.00;;;17.90;99.90;;;;;;5096568;28;20105;-85
2023/06/06 11:12:26;;;;;;;9.90;7.88;;;17.80;99.90;;;;;;5095526;28;20032;-85
2023/06/06 11:14:54;;;;;;;30.95;18.92;;;17.90;99.90;;;;;;5096626;28;20028;-84
2023/06/06 11:17:21;;;;;;;17.08;8.32;;;17.10;99.90;;;;;;5096610;28;20024;-85
2023/06/06 11:19:51;;;;;;;16.60;8.57;;;18.80;99.90;;;;;;5095880;28;20456;-84
2023/06/06 11:22:22;;;;;;;12.43;8.27;;;18.00;99.90;;;;;;5096527;28;20479;-84
2023/06/06 11:24:48;;;;;;;9.75;7.90;;;18.40;99.90;;;;;;5096635;28;20311;-84
2023/06/06 11:27:16;;;;;;;13.25;7.75;;;18.10;99.90;;;;;;5096238;28;20028;-84
2023/06/06 11:29:41;;;;;;;17.42;8.98;;;17.90;99.90;;;;;;5096234;28;20035;-84
2023/06/06 11:32:12;;;;;;;16.88;8.63;;;17.10;99.90;;;;;;5096290;28;20506;-84
2023/06/06 11:34:41;;;;;;;12.10;7.65;;;18.10;99.90;;;;;;5095372;28;20487;-84
2023/06/06 11:37:08;;;;;;;9.18;7.57;;;18.20;99.90;;;;;;5096692;28;20020;-84
2023/06/06 11:39:36;;;;;;;14.82;7.03;;;18.20;99.90;;;;;;5103076;28;20029;-84
2023/06/06 11:42:02;;;;;;;10.82;6.80;;;18.30;99.90;;;;;;5096245;28;20028;-84
2023/06/06 11:44:35;;;;;;;11.20;7.03;;;18.30;99.90;;;;;;5096062;28;20028;-84
2023/06/06 11:47:03;;;;;;;12.25;7.72;;;18.40;99.90;;;;;;5095412;28;20116;-84
2023/06/06 11:49:42;;;;;;;14.25;8.63;;;18.40;99.90;;;;;;5095782;28;20032;-84
2023/06/06 11:52:08;;;;;;;15.55;8.18;;;18.60;99.90;;;;;;5096350;28;20028;-84
2023/06/06 11:54:33;;;;;;;13.15;7.38;;;19.30;99.90;;;;;;5095103;28;20048;-84
2023/06/06 11:57:02;;;;;;;16.52;8.20;;;19.40;99.90;;;;;;5095471;28;20430;-84
2023/06/06 11:59:30;;;;;;;8.27;7.47;;;19.50;99.90;;;;;;5095638;28;20107;-84
2023/06/06 12:01:56;;;;;;;11.43;7.20;;;18.60;99.90;;;;;;5094956;28;20085;-84
2023/06/06 12:04:23;;;;;;;16.02;7.90;;;19.60;99.90;;;;;;5095819;28;20031;-84
2023/06/06 12:07:07;;;;;;;12.77;7.80;;;18.50;99.90;;;;;;5095727;28;20028;-84
2023/06/06 12:09:33;;;;;;;14.80;7.88;;;18.80;99.90;;;;;;5094705;28;20482;-84
2023/06/06 12:12:01;;;;;;;14.00;7.35;;;18.40;99.90;;;;;;5095393;28;20059;-84
2023/06/06 12:14:28;;;;;;;15.18;7.65;;;19.10;99.90;;;;;;5095654;28;20093;-84
2023/06/06 12:17:05;;;;;;;11.32;8.63;;;19.00;99.90;;;;;;5094389;28;20425;-83
2023/06/06 12:19:32;;;;;;;14.30;8.32;;;19.10;99.90;;;;;;5095735;28;20045;-84
2023/06/06 12:21:57;;;;;;;14.70;8.20;;;19.10;99.90;;;;;;5094585;28;20054;-84
2023/06/06 12:24:25;;;;;;;13.57;7.82;;;19.10;99.90;;;;;;5096575;28;20468;-83
2023/06/06 12:26:53;;;;;;;12.27;8.10;;;19.40;99.90;;;;;;5094889;28;20024;-85
2023/06/06 12:29:26;;;;;;;14.15;8.27;;;19.10;99.90;;;;;;5094693;28;20036;-84
2023/06/06 12:32:12;;;;;;;9.40;7.72;;;19.80;99.90;;;;;;5095899;28;20024;-84
2023/06/06 12:34:49;;;;;;;10.60;7.80;;;19.30;99.90;;;;;;5095005;28;20024;-84
2023/06/06 12:37:15;;;;;;;11.88;8.75;;;19.30;99.90;;;;;;5094147;28;20028;-84
2023/06/06 12:39:45;;;;;;;10.70;7.82;;;19.30;99.90;;;;;;5094832;28;20390;-84